Time;durP1;ratioP1;P1;durP2;ratioP2;P2;SDS_P1;SDS_P2;PMS_P1;PMS_P2;Temp;Humidity;BMP_temperature;BMP_pressure;BME280_temperature;BME280_humidity;BME280_pressure;Samples;Min_cycle;Max_cycle;Signal;HPM_P1;HPM_P2
2021/06/25 00:01:14;;;;;;;;;;;;;;;22.04;62.00;101374.69;2053937;28;4102;-74
2021/06/25 00:02:41;;;;;;;;;;;;;;;22.04;62.22;101355.56;2053017;28;4060;-76
2021/06/25 00:04:08;;;;;;;;;;;;;;;22.05;62.00;101360.06;2053275;28;4112;-73
2021/06/25 00:05:34;;;;;;;;;;;;;;;22.06;61.91;101361.75;2053050;28;4199;-74
2021/06/25 00:07:01;;;;;;;;;;;;;;;22.07;61.92;101351.19;2053279;28;4142;-74
2021/06/25 00:08:27;;;;;;;;;;;;;;;22.07;61.93;101346.31;2054193;28;4080;-74
2021/06/25 00:09:54;;;;;;;;;;;;;;;22.08;61.84;101350.84;2053039;28;4031;-74
2021/06/25 00:11:19;;;;;;;;;;;;;;;22.09;62.06;101355.38;2053025;28;3917;-75
2021/06/25 00:12:46;;;;;;;;;;;;;;;22.10;61.96;101353.34;2052264;28;4221;-76
2021/06/25 00:14:13;;;;;;;;;;;;;;;22.11;62.26;101349.28;2053508;28;4071;-76
2021/06/25 00:15:39;;;;;;;;;;;;;;;22.12;62.12;101339.59;2053083;28;4043;-76
2021/06/25 00:17:06;;;;;;;;;;;;;;;22.11;62.10;101341.59;2054186;28;4058;-75
2021/06/25 00:18:33;;;;;;;;;;;;;;;22.13;62.05;101341.25;2053012;28;4189;-74
2021/06/25 00:19:59;;;;;;;;;;;;;;;22.14;62.04;101337.22;2052554;28;4092;-75
2021/06/25 00:21:25;;;;;;;;;;;;;;;22.13;61.90;101333.53;2054343;28;4170;-75
2021/06/25 00:22:51;;;;;;;;;;;;;;;22.14;61.87;101334.38;2052743;28;4133;-76
2021/06/25 00:24:18;;;;;;;;;;;;;;;22.15;61.96;101325.47;2053927;28;4060;-76
2021/06/25 00:25:44;;;;;;;;;;;;;;;22.15;61.94;101325.47;2052738;28;4237;-75
2021/06/25 00:27:11;;;;;;;;;;;;;;;22.16;62.07;101332.00;2054203;28;4054;-75
2021/06/25 00:28:37;;;;;;;;;;;;;;;22.17;61.87;101331.66;2053238;28;4228;-73
2021/06/25 00:30:03;;;;;;;;;;;;;;;22.17;62.02;101334.50;2051760;28;4094;-74
2021/06/25 00:31:30;;;;;;;;;;;;;;;22.18;61.94;101341.91;2054217;28;3926;-75
2021/06/25 00:32:56;;;;;;;;;;;;;;;22.19;61.93;101343.56;2053017;28;4186;-75
2021/06/25 00:34:24;;;;;;;;;;;;;;;22.19;61.98;101339.88;2053191;28;4244;-75
2021/06/25 00:35:50;;;;;;;;;;;;;;;22.19;62.00;101340.72;2054141;28;4184;-75
2021/06/25 00:37:16;;;;;;;;;;;;;;;22.20;61.90;101336.69;2053638;28;4094;-75
2021/06/25 00:38:42;;;;;;;;;;;;;;;22.19;62.00;101326.47;2053348;28;4191;-75
2021/06/25 00:40:09;;;;;;;;;;;;;;;22.21;62.03;101329.78;2052811;28;4093;-74
2021/06/25 00:41:36;;;;;;;;;;;;;;;22.22;61.83;101330.66;2053935;28;4033;-75
2021/06/25 00:43:03;;;;;;;;;;;;;;;22.22;62.04;101328.63;2053829;28;3948;-75
2021/06/25 00:44:30;;;;;;;;;;;;;;;22.23;61.90;101326.59;2052879;28;4077;-74
2021/06/25 00:45:56;;;;;;;;;;;;;;;22.24;61.88;101331.94;2054259;28;4071;-76
2021/06/25 00:47:23;;;;;;;;;;;;;;;22.24;61.98;101322.56;2053462;28;3879;-76
2021/06/25 00:48:50;;;;;;;;;;;;;;;22.24;61.91;101317.69;2052870;28;4236;-75
2021/06/25 00:50:17;;;;;;;;;;;;;;;22.25;62.13;101315.69;2053430;28;4084;-75
2021/06/25 00:51:44;;;;;;;;;;;;;;;22.26;62.05;101310.81;2053039;28;4223;-79
2021/06/25 00:53:11;;;;;;;;;;;;;;;22.26;61.90;101313.69;2053666;28;3964;-78
2021/06/25 00:54:37;;;;;;;;;;;;;;;22.27;61.88;101318.19;2051792;28;4305;-74
2021/06/25 00:56:03;;;;;;;;;;;;;;;22.27;62.01;101321.84;2053826;28;3991;-75
2021/06/25 00:57:31;;;;;;;;;;;;;;;22.28;62.13;101322.72;2052232;28;4050;-76
2021/06/25 00:58:57;;;;;;;;;;;;;;;22.28;62.03;101320.69;2053294;28;4217;-73
2021/06/25 01:00:23;;;;;;;;;;;;;;;22.28;61.95;101319.88;2053621;28;3955;-73
2021/06/25 01:01:51;;;;;;;;;;;;;;;22.30;62.11;101323.19;2052784;28;4011;-74
2021/06/25 01:03:17;;;;;;;;;;;;;;;22.30;61.91;101320.31;2053124;28;4042;-74
2021/06/25 01:04:44;;;;;;;;;;;;;;;22.30;61.90;101329.69;2052276;28;4327;-75
2021/06/25 01:06:10;;;;;;;;;;;;;;;22.30;62.08;101321.16;2053382;28;4396;-73
2021/06/25 01:07:36;;;;;;;;;;;;;;;22.32;61.96;101312.25;2052920;28;4058;-73
2021/06/25 01:09:02;;;;;;;;;;;;;;;22.31;61.85;101319.16;2052790;28;4063;-74
2021/06/25 01:10:29;;;;;;;;;;;;;;;22.32;61.94;101315.13;2053921;28;4075;-75
2021/06/25 01:11:55;;;;;;;;;;;;;;;22.32;62.14;101310.25;2051368;28;4211;-74
2021/06/25 01:13:21;;;;;;;;;;;;;;;22.32;62.13;101307.38;2053077;28;4057;-74
2021/06/25 01:14:47;;;;;;;;;;;;;;;22.33;62.00;101313.91;2053397;28;4230;-74
2021/06/25 01:16:13;;;;;;;;;;;;;;;22.33;62.05;101311.94;2053070;28;4051;-76
2021/06/25 01:17:40;;;;;;;;;;;;;;;22.34;62.06;101309.91;2052999;28;4020;-75
2021/06/25 01:19:07;;;;;;;;;;;;;;;22.33;61.98;101308.22;2052106;28;3913;-75
2021/06/25 01:20:34;;;;;;;;;;;;;;;22.34;62.04;101309.91;2052697;28;4192;-74
2021/06/25 01:22:00;;;;;;;;;;;;;;;22.34;61.97;101301.34;2053137;28;3946;-74
2021/06/25 01:23:26;;;;;;;;;;;;;;;22.35;61.94;101303.84;2053085;28;4246;-75
2021/06/25 01:24:53;;;;;;;;;;;;;;;22.35;61.96;101311.56;2052273;28;4051;-74
2021/06/25 01:26:19;;;;;;;;;;;;;;;22.35;61.96;101297.31;2053090;28;3968;-75
2021/06/25 01:27:46;;;;;;;;;;;;;;;22.36;61.91;101301.84;2050689;28;4250;-74
2021/06/25 01:29:13;;;;;;;;;;;;;;;22.36;62.11;101296.97;2050335;28;3951;-74
2021/06/25 01:30:40;;;;;;;;;;;;;;;22.37;61.96;101292.09;2050451;28;4060;-74
2021/06/25 01:32:06;;;;;;;;;;;;;;;22.37;62.16;101289.25;2050699;28;3971;-75
2021/06/25 01:33:33;;;;;;;;;;;;;;;22.37;61.93;101286.41;2052433;28;4065;-74
2021/06/25 01:34:59;;;;;;;;;;;;;;;22.37;62.12;101292.91;2052992;28;4141;-71
2021/06/25 01:36:25;;;;;;;;;;;;;;;22.37;61.89;101290.06;2052377;28;4138;-74
2021/06/25 01:37:51;;;;;;;;;;;;;;;22.37;62.09;101290.06;2052714;28;4015;-75
2021/06/25 01:39:18;;;;;;;;;;;;;;;22.38;62.07;101288.88;2054018;28;3968;-74
2021/06/25 01:40:45;;;;;;;;;;;;;;;22.39;62.11;101289.72;2053306;28;4172;-75
2021/06/25 01:42:12;;;;;;;;;;;;;;;22.39;61.98;101281.19;2053042;28;4094;-75
2021/06/25 01:43:39;;;;;;;;;;;;;;;22.39;62.15;101290.56;2051878;28;4217;-77
2021/06/25 01:45:05;;;;;;;;;;;;;;;22.39;62.10;101287.72;2051525;28;4082;-73
2021/06/25 01:46:32;;;;;;;;;;;;;;;22.40;62.19;101285.69;2053349;28;4925;-74
2021/06/25 01:47:58;;;;;;;;;;;;;;;22.41;62.02;101284.50;2052947;28;4054;-74
2021/06/25 01:49:24;;;;;;;;;;;;;;;22.40;61.93;101285.69;2053068;28;3881;-73
2021/06/25 01:50:50;;;;;;;;;;;;;;;22.41;61.99;101278.78;2052904;28;4389;-76
2021/06/25 01:52:16;;;;;;;;;;;;;;;22.42;62.20;101274.78;2052919;28;3880;-76
2021/06/25 01:53:42;;;;;;;;;;;;;;;22.41;61.97;101275.94;2051795;28;4232;-76
2021/06/25 01:55:09;;;;;;;;;;;;;;;22.41;61.97;101273.94;2052653;28;3937;-77
2021/06/25 01:56:36;;;;;;;;;;;;;;;22.43;62.70;101274.41;2052486;28;4197;-77
2021/06/25 01:58:02;;;;;;;;;;;;;;;22.42;62.37;101272.75;2052674;28;3870;-77
2021/06/25 01:59:28;;;;;;;;;;;;;;;22.43;62.39;101268.69;2053219;28;4041;-74
2021/06/25 02:00:54;;;;;;;;;;;;;;;22.42;62.18;101269.06;2052485;28;4055;-75
2021/06/25 02:02:20;;;;;;;;;;;;;;;22.43;62.39;101268.69;2052930;28;3907;-75
2021/06/25 02:03:48;;;;;;;;;;;;;;;22.43;62.30;101262.16;2052309;28;4194;-75
2021/06/25 02:05:14;;;;;;;;;;;;;;;22.43;62.20;101263.00;2051187;28;3935;-75
2021/06/25 02:06:40;;;;;;;;;;;;;;;22.43;62.21;101263.00;2051868;28;4023;-76
2021/06/25 02:08:07;;;;;;;;;;;;;;;22.43;62.09;101256.47;2053173;28;4086;-77
2021/06/25 02:09:34;;;;;;;;;;;;;;;22.44;62.22;101252.41;2052549;28;5033;-76
2021/06/25 02:11:01;;;;;;;;;;;;;;;22.43;62.13;101253.63;2053202;28;3890;-74
2021/06/25 02:12:27;;;;;;;;;;;;;;;22.44;62.15;101256.13;2052636;28;4070;-75
2021/06/25 02:13:54;;;;;;;;;;;;;;;22.44;62.12;101258.97;2052119;28;4251;-75
2021/06/25 02:15:20;;;;;;;;;;;;;;;22.45;62.14;101265.50;2053100;28;4070;-76
2021/06/25 02:16:46;;;;;;;;;;;;;;;22.45;62.18;101259.81;2052020;28;4021;-77
2021/06/25 02:18:14;;;;;;;;;;;;;;;22.45;62.15;101260.63;2053570;28;4079;-76
2021/06/25 02:19:40;;;;;;;;;;;;;;;22.46;62.21;101255.75;2052526;28;4242;-76
2021/06/25 02:21:06;;;;;;;;;;;;;;;22.45;62.15;101254.09;2051075;28;4001;-76
2021/06/25 02:22:33;;;;;;;;;;;;;;;22.45;62.06;101254.94;2052435;28;4178;-75
2021/06/25 02:23:59;;;;;;;;;;;;;;;22.46;62.15;101255.75;2052908;28;4218;-76
2021/06/25 02:25:27;;;;;;;;;;;;;;;22.47;62.20;101260.28;2052995;28;4215;-76
2021/06/25 02:26:53;;;;;;;;;;;;;;;22.46;62.21;101255.75;2052339;28;4051;-75
2021/06/25 02:28:19;;;;;;;;;;;;;;;22.47;62.17;101254.59;2052678;28;3877;-76
2021/06/25 02:29:45;;;;;;;;;;;;;;;22.47;62.00;101246.03;2050493;28;4050;-74
2021/06/25 02:31:11;;;;;;;;;;;;;;;22.46;62.09;101247.19;2052308;28;3897;-74
2021/06/25 02:32:38;;;;;;;;;;;;;;;22.46;62.02;101242.34;2052854;28;4194;-74
2021/06/25 02:34:04;;;;;;;;;;;;;;;22.46;62.11;101242.34;2051801;28;3911;-75
2021/06/25 02:35:31;;;;;;;;;;;;;;;22.47;61.99;101246.03;2052863;28;4045;-74
2021/06/25 02:36:58;;;;;;;;;;;;;;;22.48;62.01;101242.00;2051532;28;4259;-75
2021/06/25 02:38:24;;;;;;;;;;;;;;;22.48;62.08;101246.88;2052175;28;3894;-75
2021/06/25 02:39:50;;;;;;;;;;;;;;;22.48;61.96;101246.88;2051918;28;4397;-75
2021/06/25 02:41:19;;;;;;;;;;;;;;;22.48;61.99;101246.88;2051224;28;4025;-77
2021/06/25 02:42:46;;;;;;;;;;;;;;;22.48;61.92;101252.56;2052170;28;4202;-76
2021/06/25 02:44:12;;;;;;;;;;;;;;;22.48;62.03;101253.41;2052789;28;3904;-77
2021/06/25 02:45:39;;;;;;;;;;;;;;;22.48;61.88;101250.53;2051991;28;4205;-77
2021/06/25 02:47:05;;;;;;;;;;;;;;;22.48;61.91;101253.41;2052298;28;3922;-75
2021/06/25 02:48:31;;;;;;;;;;;;;;;22.47;62.01;101251.75;2052685;28;4176;-76
2021/06/25 02:49:57;;;;;;;;;;;;;;;22.47;61.98;101248.88;2052403;28;4188;-76
2021/06/25 02:51:24;;;;;;;;;;;;;;;22.48;61.75;101249.72;2051924;28;4041;-76
2021/06/25 02:52:50;;;;;;;;;;;;;;;22.48;61.82;101241.16;2052308;28;4060;-77
2021/06/25 02:54:16;;;;;;;;;;;;;;;22.48;61.82;101239.13;2051260;28;3977;-76
2021/06/25 02:55:50;;;;;;;;;;;;;;;22.48;61.98;101230.59;2052429;28;4235;-77
2021/06/25 02:57:17;;;;;;;;;;;;;;;22.48;61.95;101233.44;2052773;28;3911;-76
2021/06/25 02:58:43;;;;;;;;;;;;;;;22.49;61.90;101231.41;2053574;28;4223;-76
2021/06/25 03:00:10;;;;;;;;;;;;;;;22.48;61.91;101239.13;2053544;28;3938;-76
2021/06/25 03:01:36;;;;;;;;;;;;;;;22.47;62.01;101240.34;2053571;28;4179;-77
2021/06/25 03:03:02;;;;;;;;;;;;;;;22.47;62.04;101231.78;2054170;28;4252;-77
2021/06/25 03:04:28;;;;;;;;;;;;;;;22.48;62.02;101239.13;2054131;28;4031;-77
2021/06/25 03:05:55;;;;;;;;;;;;;;;22.46;62.03;101238.66;2053628;28;4025;-76
2021/06/25 03:07:21;;;;;;;;;;;;;;;22.46;61.90;101247.19;2053116;28;3910;-76
2021/06/25 03:08:47;;;;;;;;;;;;;;;22.47;61.93;101254.59;2052781;28;4217;-77
2021/06/25 03:10:13;;;;;;;;;;;;;;;22.46;61.94;101244.34;2053576;28;4108;-86
2021/06/25 03:11:39;;;;;;;;;;;;;;;22.45;62.11;101248.41;2052020;28;4214;-77
2021/06/25 03:13:05;;;;;;;;;;;;;;;22.44;62.02;101246.72;2053696;28;3956;-76
2021/06/25 03:14:33;;;;;;;;;;;;;;;22.44;61.92;101244.72;2053247;28;4208;-78
2021/06/25 03:16:00;;;;;;;;;;;;;;;22.44;62.03;101243.88;2053034;28;4212;-77
2021/06/25 03:17:26;;;;;;;;;;;;;;;22.43;62.02;101237.34;2054424;28;4833;-77
2021/06/25 03:18:52;;;;;;;;;;;;;;;22.44;61.98;101243.88;2053741;28;4051;-77
2021/06/25 03:20:18;;;;;;;;;;;;;;;22.43;61.94;101245.06;2052562;28;3899;-77
2021/06/25 03:21:46;;;;;;;;;;;;;;;22.41;61.94;101236.88;2053575;28;4225;-77
2021/06/25 03:23:12;;;;;;;;;;;;;;;22.43;61.85;101239.34;2052456;28;4609;-77
2021/06/25 03:24:38;;;;;;;;;;;;;;;22.42;61.91;101247.09;2054552;28;4198;-77
2021/06/25 03:26:05;;;;;;;;;;;;;;;22.41;61.97;101239.72;2053802;28;4063;-77
2021/06/25 03:27:32;;;;;;;;;;;;;;;22.42;61.83;101249.13;2053828;28;4090;-76
2021/06/25 03:28:58;;;;;;;;;;;;;;;22.42;61.81;101251.97;2053582;28;4229;-77
2021/06/25 03:30:24;;;;;;;;;;;;;;;22.41;61.87;101259.69;2053127;28;4221;-77
2021/06/25 03:31:51;;;;;;;;;;;;;;;22.41;61.78;101258.84;2053766;28;4014;-75
2021/06/25 03:33:18;;;;;;;;;;;;;;;22.41;61.92;101258.84;2053658;28;4296;-75
2021/06/25 03:34:44;;;;;;;;;;;;;;;22.41;61.91;101265.38;2053793;28;4238;-75
2021/06/25 03:36:11;;;;;;;;;;;;;;;22.41;61.92;101264.53;2053215;28;4095;-75
2021/06/25 03:37:37;;;;;;;;;;;;;;;22.41;61.80;101261.69;2053760;28;4196;-75
2021/06/25 03:39:05;;;;;;;;;;;;;;;22.40;61.90;101258.00;2053832;28;4187;-77
2021/06/25 03:40:31;;;;;;;;;;;;;;;22.40;61.91;101258.00;2054870;28;3893;-77
2021/06/25 03:41:58;;;;;;;;;;;;;;;22.40;61.93;101257.19;2053731;28;4034;-77
2021/06/25 03:43:24;;;;;;;;;;;;;;;22.40;61.93;101257.19;2053902;28;4036;-76
2021/06/25 03:44:50;;;;;;;;;;;;;;;22.39;61.91;101255.53;2053838;28;4235;-76
2021/06/25 03:46:19;;;;;;;;;;;;;;;22.40;61.79;101260.03;2053491;28;4061;-76
2021/06/25 03:47:46;;;;;;;;;;;;;;;22.39;61.76;101264.06;2053819;28;4005;-76
2021/06/25 03:49:12;;;;;;;;;;;;;;;22.39;61.92;101256.34;2053034;28;4089;-76
2021/06/25 03:50:38;;;;;;;;;;;;;;;22.39;61.88;101262.06;2053898;28;4354;-78
2021/06/25 03:52:04;;;;;;;;;;;;;;;22.39;61.88;101255.53;2054182;28;3884;-79
2021/06/25 03:53:30;;;;;;;;;;;;;;;22.38;61.76;101254.66;2053135;28;3949;-79
2021/06/25 03:54:56;;;;;;;;;;;;;;;22.39;61.83;101261.22;2053210;28;4036;-80
2021/06/25 03:56:22;;;;;;;;;;;;;;;22.38;61.83;101260.38;2053583;28;3899;-79
2021/06/25 03:57:48;;;;;;;;;;;;;;;22.38;61.70;101254.66;2053352;28;4082;-79
2021/06/25 03:59:14;;;;;;;;;;;;;;;22.39;61.76;101255.53;2052943;28;4074;-79
2021/06/25 04:00:40;;;;;;;;;;;;;;;22.38;61.85;101254.66;2053451;28;4042;-79
2021/06/25 04:02:10;;;;;;;;;;;;;;;22.38;61.78;101260.38;2053577;28;3943;-78
2021/06/25 04:03:37;;;;;;;;;;;;;;;22.38;61.81;101260.38;2053488;28;4003;-77
2021/06/25 04:05:05;;;;;;;;;;;;;;;22.39;61.66;101266.94;2053477;28;3774;-79
2021/06/25 04:06:31;;;;;;;;;;;;;;;22.39;61.68;101264.91;2053121;28;3922;-78
2021/06/25 04:07:57;;;;;;;;;;;;;;;22.38;61.68;101268.91;2052387;28;4211;-79
2021/06/25 04:09:23;;;;;;;;;;;;;;;22.39;61.68;101270.59;2053055;28;4111;-79
2021/06/25 04:10:50;;;;;;;;;;;;;;;22.38;61.83;101271.78;2053755;28;4199;-77
2021/06/25 04:12:17;;;;;;;;;;;;;;;22.38;61.75;101268.91;2053022;28;3950;-75
2021/06/25 04:13:44;;;;;;;;;;;;;;;22.38;61.82;101266.06;2052952;28;4078;-76
2021/06/25 04:15:11;;;;;;;;;;;;;;;22.39;61.67;101272.63;2054021;28;4096;-76
2021/06/25 04:16:37;;;;;;;;;;;;;;;22.38;61.68;101276.66;2053804;28;4147;-74
2021/06/25 04:18:03;;;;;;;;;;;;;;;22.38;61.73;101277.47;2053898;28;3941;-77
2021/06/25 04:19:29;;;;;;;;;;;;;;;22.38;61.85;101274.63;2052863;28;4206;-77
2021/06/25 04:20:55;;;;;;;;;;;;;;;22.39;61.81;101278.34;2053526;28;4058;-77
2021/06/25 04:22:22;;;;;;;;;;;;;;;22.39;61.85;101279.16;2053515;28;3887;-76
2021/06/25 04:23:48;;;;;;;;;;;;;;;22.38;61.75;101279.50;2053121;28;4204;-79
2021/06/25 04:25:14;;;;;;;;;;;;;;;22.38;61.86;101276.66;2053411;28;3875;-78
2021/06/25 04:26:43;;;;;;;;;;;;;;;22.39;61.85;101278.34;2053279;28;4213;-73
2021/06/25 04:28:09;;;;;;;;;;;;;;;22.39;61.87;101281.19;2053146;28;3881;-84
2021/06/25 04:29:36;;;;;;;;;;;;;;;22.39;61.62;101278.34;2051742;28;5173;-81
2021/06/25 04:31:03;;;;;;;;;;;;;;;22.38;61.64;101277.47;2053716;28;3886;-79
2021/06/25 04:32:29;;;;;;;;;;;;;;;22.39;61.79;101282.00;2053278;28;4235;-89
2021/06/25 04:33:55;;;;;;;;;;;;;;;22.39;61.96;101284.03;2053119;28;4078;-81
2021/06/25 04:35:22;;;;;;;;;;;;;;;22.38;61.90;101279.50;2053980;28;3901;-81
2021/06/25 04:36:49;;;;;;;;;;;;;;;22.37;62.03;101272.97;2053903;28;4220;-83
2021/06/25 04:38:15;;;;;;;;;;;;;;;22.39;61.81;101287.72;2053644;28;3855;-78
2021/06/25 04:39:42;;;;;;;;;;;;;;;22.38;61.89;101288.03;2052947;28;4202;-78
2021/06/25 04:41:08;;;;;;;;;;;;;;;22.40;61.72;101285.69;2054168;28;3967;-80
2021/06/25 04:42:34;;;;;;;;;;;;;;;22.40;61.86;101282.84;2052389;28;4044;-80
2021/06/25 04:44:00;;;;;;;;;;;;;;;22.39;61.82;101289.72;2053443;28;4074;-81
2021/06/25 04:45:26;;;;;;;;;;;;;;;22.40;61.82;101291.38;2051967;28;4145;-86
2021/06/25 04:46:53;;;;;;;;;;;;;;;22.40;61.85;101285.69;2052935;28;4029;-83
2021/06/25 04:48:19;;;;;;;;;;;;;;;22.40;61.85;101279.97;2052773;28;4003;-84
2021/06/25 04:49:47;;;;;;;;;;;;;;;22.41;61.82;101276.78;2053750;28;4019;-86
2021/06/25 04:51:13;;;;;;;;;;;;;;;22.41;61.80;101284.50;2054243;28;4105;-83
2021/06/25 04:52:39;;;;;;;;;;;;;;;22.40;61.91;101280.81;2053455;28;4177;-83
2021/06/25 04:54:05;;;;;;;;;;;;;;;22.40;62.15;101286.50;2053482;28;4099;-81
2021/06/25 04:55:40;;;;;;;;;;;;;;;22.41;61.95;101288.19;2053256;28;4147;-78
2021/06/25 04:57:07;;;;;;;;;;;;;;;22.41;61.93;101287.34;2052409;28;3918;-84
2021/06/25 04:58:33;;;;;;;;;;;;;;;22.42;61.94;101289.03;2052537;28;4038;-81
2021/06/25 05:00:00;;;;;;;;;;;;;;;22.41;61.92;101284.50;2052210;28;3943;-85
2021/06/25 05:01:27;;;;;;;;;;;;;;;22.41;61.88;101293.03;2052739;28;3883;-89
2021/06/25 05:02:54;;;;;;;;;;;;;;;22.40;61.95;101303.63;2052161;28;4236;-86
2021/06/25 05:04:21;;;;;;;;;;;;;;;22.40;61.85;101285.69;2053274;28;3899;-85
2021/06/25 05:05:48;;;;;;;;;;;;;;;22.41;61.93;101293.91;2053198;28;4215;-87
2021/06/25 05:07:15;;;;;;;;;;;;;;;22.41;61.86;101293.91;2053053;28;4065;-89
2021/06/25 05:08:44;;;;;;;;;;;;;;;22.41;61.93;101295.91;2052830;28;4089;-84
2021/06/25 05:10:12;;;;;;;;;;;;;;;22.41;61.95;101295.91;2053216;28;3900;-83
2021/06/25 05:11:38;;;;;;;;;;;;;;;22.41;62.01;101301.59;2053240;28;4397;-83
2021/06/25 05:13:05;;;;;;;;;;;;;;;22.41;62.01;101291.06;2052848;28;3897;-83
2021/06/25 05:14:33;;;;;;;;;;;;;;;22.41;61.94;101295.91;2052994;28;4073;-73
2021/06/25 05:15:59;;;;;;;;;;;;;;;22.41;61.81;101287.34;2052729;28;3893;-79
2021/06/25 05:17:26;;;;;;;;;;;;;;;22.41;61.96;101285.34;2052886;28;4040;-79
2021/06/25 05:18:53;;;;;;;;;;;;;;;22.41;61.79;101287.34;2052529;28;4232;-82
2021/06/25 05:20:19;;;;;;;;;;;;;;;22.41;61.81;101287.34;2053402;28;4057;-81
2021/06/25 05:21:46;;;;;;;;;;;;;;;22.41;61.86;101291.06;2052774;28;4213;-81
2021/06/25 05:23:13;;;;;;;;;;;;;;;22.41;61.84;101304.44;2052134;28;4073;-81
2021/06/25 05:24:39;;;;;;;;;;;;;;;22.40;61.95;101300.78;2051940;28;4083;-81
2021/06/25 05:26:05;;;;;;;;;;;;;;;22.41;61.79;101299.59;2053411;28;3903;-78
2021/06/25 05:27:32;;;;;;;;;;;;;;;22.40;61.79;101297.09;2052877;28;4087;-74
2021/06/25 05:28:58;;;;;;;;;;;;;;;22.42;61.86;101300.44;2055087;28;3982;-76
2021/06/25 05:30:25;;;;;;;;;;;;;;;22.42;61.65;101301.25;2052868;28;3986;-74
2021/06/25 05:31:52;;;;;;;;;;;;;;;22.45;61.85;101305.44;2052489;28;4070;-77
2021/06/25 05:33:18;;;;;;;;;;;;;;;22.44;61.60;101300.88;2052175;28;3933;-76
2021/06/25 05:34:45;;;;;;;;;;;;;;;22.44;61.62;101298.91;2052115;28;4949;-79
2021/06/25 05:36:11;;;;;;;;;;;;;;;22.45;61.67;101292.00;2053260;28;4119;-81
2021/06/25 05:37:37;;;;;;;;;;;;;;;22.45;61.83;101288.31;2052868;28;4029;-82
2021/06/25 05:39:03;;;;;;;;;;;;;;;22.45;61.67;101285.47;2052157;28;4019;-81
2021/06/25 05:40:29;;;;;;;;;;;;;;;22.44;61.73;101290.34;2052442;28;4021;-82
2021/06/25 05:41:56;;;;;;;;;;;;;;;22.45;61.87;101294.03;2053137;28;4050;-81
2021/06/25 05:43:22;;;;;;;;;;;;;;;22.44;61.85;101293.19;2053264;28;4023;-81
2021/06/25 05:44:50;;;;;;;;;;;;;;;22.44;61.93;101290.34;2053008;28;4204;-82
2021/06/25 05:46:16;;;;;;;;;;;;;;;22.45;61.76;101297.69;2052596;28;4081;-82
2021/06/25 05:47:42;;;;;;;;;;;;;;;22.45;61.67;101296.88;2051722;28;4252;-81
2021/06/25 05:49:09;;;;;;;;;;;;;;;22.44;61.84;101293.19;2052852;28;3912;-82
2021/06/25 05:50:37;;;;;;;;;;;;;;;22.45;61.70;101294.03;2052668;28;4069;-82
2021/06/25 05:52:03;;;;;;;;;;;;;;;22.44;61.76;101293.19;2052748;28;4064;-82
2021/06/25 05:53:30;;;;;;;;;;;;;;;22.44;61.76;101292.34;2052773;28;3855;-82
2021/06/25 05:54:57;;;;;;;;;;;;;;;22.45;61.67;101294.03;2052477;28;4052;-82
2021/06/25 05:56:24;;;;;;;;;;;;;;;22.46;61.66;101295.69;2052701;28;4050;-80
2021/06/25 05:57:51;;;;;;;;;;;;;;;22.45;61.67;101292.00;2052186;28;4368;-77
2021/06/25 05:59:17;;;;;;;;;;;;;;;22.46;61.87;101298.53;2053510;28;3926;-77
2021/06/25 06:00:44;;;;;;;;;;;;;;;22.45;61.81;101289.16;2052950;28;4249;-76
2021/06/25 06:02:10;;;;;;;;;;;;;;;22.46;61.73;101298.53;2052659;28;3893;-77
2021/06/25 06:03:38;;;;;;;;;;;;;;;22.46;61.79;101295.69;2052648;28;4066;-77
2021/06/25 06:05:04;;;;;;;;;;;;;;;22.46;61.79;101302.22;2052459;28;4015;-76
2021/06/25 06:06:31;;;;;;;;;;;;;;;22.46;61.68;101301.38;2052643;28;3991;-77
2021/06/25 06:07:58;;;;;;;;;;;;;;;22.46;61.64;101307.09;2052055;28;4224;-77
2021/06/25 06:09:24;;;;;;;;;;;;;;;22.47;61.59;101303.06;2053714;28;3927;-77
2021/06/25 06:10:50;;;;;;;;;;;;;;;22.48;61.58;101309.59;2052451;28;5077;-81
2021/06/25 06:12:16;;;;;;;;;;;;;;;22.48;61.65;101312.44;2052000;28;4121;-82
2021/06/25 06:13:42;;;;;;;;;;;;;;;22.48;61.59;101310.41;2052438;28;4021;-82
2021/06/25 06:15:09;;;;;;;;;;;;;;;22.48;61.63;101316.13;2052935;28;4064;-82
2021/06/25 06:16:36;;;;;;;;;;;;;;;22.50;61.65;101315.78;2050787;28;4223;-83
2021/06/25 06:18:05;;;;;;;;;;;;;;;22.49;61.59;101325.50;2053369;28;3933;-83
2021/06/25 06:19:39;;;;;;;;;;;;;;;22.48;61.75;101313.28;2053071;28;4202;-81
2021/06/25 06:21:05;;;;;;;;;;;;;;;22.49;61.67;101316.94;2052900;28;4194;-81
2021/06/25 06:31:19;;;;;;;;;;;;;;;22.50;61.48;101313.75;2052095;28;4028;-80
2021/06/25 06:32:55;;;;;;;;;;;;;;;22.51;61.65;101317.44;2054935;28;4186;-77
2021/06/25 06:34:22;;;;;;;;;;;;;;;22.51;61.50;101309.72;2054231;28;4017;-78
2021/06/25 06:35:49;;;;;;;;;;;;;;;22.50;61.48;101319.47;2054946;28;4102;-74
2021/06/25 06:37:19;;;;;;;;;;;;;;;22.52;61.49;101313.41;2053455;28;4136;-77
2021/06/25 06:38:45;;;;;;;;;;;;;;;22.51;61.47;101312.56;2054211;28;4175;-77
2021/06/25 06:40:13;;;;;;;;;;;;;;;22.51;61.51;101312.56;2054114;28;3902;-78
2021/06/25 06:41:39;;;;;;;;;;;;;;;22.52;61.47;101311.38;2053996;28;4410;-77
2021/06/25 06:43:06;;;;;;;;;;;;;;;22.52;61.48;101307.69;2054812;28;3896;-78
2021/06/25 06:44:33;;;;;;;;;;;;;;;22.52;61.60;101311.38;2053665;28;4199;-75
2021/06/25 06:46:00;;;;;;;;;;;;;;;22.52;61.37;101308.53;2054919;28;4220;-74
2021/06/25 06:47:27;;;;;;;;;;;;;;;22.53;61.66;101315.91;2054614;28;3878;-73
2021/06/25 06:48:53;;;;;;;;;;;;;;;22.53;61.78;101312.22;2053999;28;4046;-75
2021/06/25 06:50:19;;;;;;;;;;;;;;;22.53;61.72;101324.47;2054741;28;4115;-76
2021/06/25 06:51:45;;;;;;;;;;;;;;;22.53;61.76;101321.63;2053658;28;4028;-75
2021/06/25 06:53:11;;;;;;;;;;;;;;;22.54;61.55;101322.44;2054647;28;3891;-75
2021/06/25 06:54:37;;;;;;;;;;;;;;;22.53;61.66;101318.75;2053600;28;4098;-75
2021/06/25 06:56:04;;;;;;;;;;;;;;;22.54;61.67;101325.28;2051787;28;3860;-77
2021/06/25 06:57:31;;;;;;;;;;;;;;;22.55;61.58;101324.09;2054697;28;4069;-77
2021/06/25 06:59:00;;;;;;;;;;;;;;;22.55;61.67;101326.94;2054387;28;4393;-77
2021/06/25 07:00:26;;;;;;;;;;;;;;;22.56;61.67;101328.63;2052182;28;4081;-75
2021/06/25 07:01:53;;;;;;;;;;;;;;;22.56;61.51;101331.47;2048487;28;4078;-76
2021/06/25 07:03:29;;;;;;;;;;;;;;;22.55;61.64;101339.22;2052102;28;4149;-76
2021/06/25 07:04:56;;;;;;;;;;;;;;;22.53;61.40;101330.16;2052744;28;4147;-77
2021/06/25 07:06:23;;;;;;;;;;;;;;;22.55;61.61;101330.66;2053204;28;4152;-77
2021/06/25 07:07:50;;;;;;;;;;;;;;;22.56;61.50;101335.16;2053123;28;4228;-76
2021/06/25 07:09:16;;;;;;;;;;;;;;;22.55;61.58;101339.22;2053727;28;3820;-76
2021/06/25 07:10:42;;;;;;;;;;;;;;;22.55;61.59;101342.06;2053592;28;4048;-77
2021/06/25 07:12:09;;;;;;;;;;;;;;;22.55;61.64;101344.91;2053778;28;4157;-77
2021/06/25 07:13:35;;;;;;;;;;;;;;;22.55;61.56;101344.91;2053165;28;4191;-79
2021/06/25 07:15:02;;;;;;;;;;;;;;;22.55;61.59;101344.91;2053280;28;4097;-76
2021/06/25 07:16:28;;;;;;;;;;;;;;;22.56;61.56;101345.75;2052322;28;4014;-76
2021/06/25 07:17:55;;;;;;;;;;;;;;;22.55;61.58;101339.22;2053196;28;4230;-76
2021/06/25 07:19:21;;;;;;;;;;;;;;;22.56;61.46;101343.72;2053900;28;4178;-76
2021/06/25 07:20:48;;;;;;;;;;;;;;;22.56;61.47;101343.72;2053524;28;4342;-76
2021/06/25 07:22:15;;;;;;;;;;;;;;;22.56;61.40;101346.56;2053797;28;4249;-76
2021/06/25 07:23:41;;;;;;;;;;;;;;;22.56;61.41;101340.88;2052911;28;4226;-76
2021/06/25 07:25:08;;;;;;;;;;;;;;;22.57;61.44;101342.53;2051864;28;4068;-76
2021/06/25 07:26:35;;;;;;;;;;;;;;;22.57;61.24;101336.81;2053074;28;4039;-76
2021/06/25 07:28:01;;;;;;;;;;;;;;;22.57;61.17;101339.66;2052136;28;4061;-76
2021/06/25 07:29:27;;;;;;;;;;;;;;;22.58;61.22;101343.38;2053588;28;4089;-77
2021/06/25 07:30:54;;;;;;;;;;;;;;;22.58;61.24;101347.06;2053367;28;4231;-76
2021/06/25 07:32:20;;;;;;;;;;;;;;;22.58;61.22;101347.06;2053719;28;3874;-76
2021/06/25 07:33:47;;;;;;;;;;;;;;;22.58;61.35;101338.50;2052658;28;4319;-74
2021/06/25 07:35:14;;;;;;;;;;;;;;;22.59;61.28;101337.31;2053341;28;4089;-74
2021/06/25 07:36:41;;;;;;;;;;;;;;;22.59;61.28;101333.63;2052912;28;4026;-73
2021/06/25 07:38:08;;;;;;;;;;;;;;;22.59;61.24;101336.47;2052474;28;3983;-73
2021/06/25 07:39:34;;;;;;;;;;;;;;;22.59;61.24;101340.16;2052581;28;4208;-72
2021/06/25 07:41:01;;;;;;;;;;;;;;;22.59;61.21;101331.59;2053596;28;4081;-73